createdAt,value
2023-08-12T00:02:33.387Z,21.84
2023-08-12T00:07:44.483Z,21.79
2023-08-12T00:17:54.565Z,21.66
2023-08-12T00:23:01.435Z,21.63
2023-08-12T00:28:07.787Z,21.57
2023-08-12T00:33:14.375Z,21.53
2023-08-12T00:38:21.983Z,21.50
2023-08-12T00:43:27.556Z,21.51
2023-08-12T00:48:33.038Z,21.48
2023-08-12T00:53:40.648Z,21.44
2023-08-12T00:58:49.417Z,21.42
2023-08-12T01:03:54.574Z,21.34
2023-08-12T01:09:02.939Z,21.30
2023-08-12T01:14:15.475Z,21.26
2023-08-12T01:19:32.630Z,21.24
2023-08-12T01:24:43.044Z,21.22
2023-08-12T01:29:52.274Z,21.16
2023-08-12T01:35:04.592Z,21.15
2023-08-12T01:40:16.828Z,21.14
2023-08-12T01:45:21.734Z,21.14
2023-08-12T01:50:30.554Z,21.14
2023-08-12T01:55:38.672Z,21.13
2023-08-12T02:00:45.009Z,21.13
2023-08-12T02:05:52.626Z,21.10
2023-08-12T02:11:00.868Z,21.07
2023-08-12T02:16:07.954Z,21.02
2023-08-12T02:21:12.801Z,20.99
2023-08-12T02:26:26.400Z,20.98
2023-08-12T02:31:33.611Z,20.92
2023-08-12T02:36:38.930Z,20.90
2023-08-12T02:41:52.018Z,20.89
2023-08-12T02:47:00.946Z,20.88
2023-08-12T02:52:11.002Z,20.88
2023-08-12T02:57:18.417Z,20.87
2023-08-12T03:02:23.069Z,20.85
2023-08-12T03:07:30.094Z,20.86
2023-08-12T03:12:41.446Z,20.87
2023-08-12T03:17:50.845Z,20.88
2023-08-12T03:22:57.209Z,20.87
2023-08-12T03:28:11.549Z,20.88
2023-08-12T03:33:17.417Z,20.88
2023-08-12T03:38:23.663Z,20.92
2023-08-12T03:43:32.171Z,20.91
2023-08-12T03:48:38.121Z,20.93
2023-08-12T03:53:44.898Z,20.97
2023-08-12T03:58:53.273Z,21.00
2023-08-12T04:04:00.844Z,21.03
2023-08-12T04:09:07.617Z,21.04
2023-08-12T04:14:14.419Z,21.07
2023-08-12T04:19:19.521Z,21.09
2023-08-12T04:24:24.305Z,21.13
2023-08-12T04:29:30.290Z,21.19
2023-08-12T04:34:36.691Z,21.23
2023-08-12T04:39:41.934Z,21.31
2023-08-12T04:44:52.095Z,21.32
2023-08-12T04:49:57.241Z,21.39
2023-08-12T04:55:02.441Z,21.49
2023-08-12T05:00:11.822Z,21.55
2023-08-12T05:05:17.035Z,21.69
2023-08-12T05:10:23.541Z,21.76
2023-08-12T05:15:30.959Z,21.88
2023-08-12T05:20:35.089Z,21.99
2023-08-12T05:25:42.300Z,22.12
2023-08-12T05:30:52.128Z,22.28
2023-08-12T05:35:59.142Z,22.70
2023-08-12T05:41:09.002Z,23.07
2023-08-12T05:46:18.753Z,24.05
2023-08-12T05:51:29.413Z,26.21
2023-08-12T05:56:39.119Z,28.25
2023-08-12T06:01:54.502Z,27.20
2023-08-12T06:07:00.308Z,26.87
2023-08-12T06:12:05.302Z,28.66
2023-08-12T06:17:15.036Z,29.12
2023-08-12T06:22:21.381Z,30.60
2023-08-12T06:27:26.554Z,29.44
2023-08-12T06:32:38.056Z,28.77
2023-08-12T06:37:43.061Z,28.56
2023-08-12T06:42:51.080Z,28.24
2023-08-12T06:48:07.208Z,28.11
2023-08-12T06:53:12.987Z,28.14
2023-08-12T06:58:19.344Z,27.66
2023-08-12T07:03:29.835Z,27.26
2023-08-12T07:08:34.917Z,26.97
2023-08-12T07:13:41.838Z,26.84
2023-08-12T07:18:50.155Z,26.69
2023-08-12T07:24:03.715Z,26.42
2023-08-12T07:29:21.538Z,26.37
2023-08-12T07:34:31.913Z,26.27
2023-08-12T07:39:40.014Z,26.12
2023-08-12T07:44:47.896Z,26.09
2023-08-12T07:50:06.937Z,26.04
2023-08-12T07:55:14.127Z,26.00
2023-08-12T08:00:22.270Z,26.00
2023-08-12T08:05:33.836Z,25.95
2023-08-12T08:10:44.793Z,25.97
2023-08-12T08:15:56.803Z,25.93
2023-08-12T08:21:09.808Z,25.96
2023-08-12T08:26:19.084Z,25.89
2023-08-12T08:31:24.934Z,25.85
2023-08-12T08:36:32.974Z,25.80
2023-08-12T08:41:41.494Z,25.74
2023-08-12T08:46:52.144Z,25.69
2023-08-12T08:52:00.192Z,25.60
2023-08-12T08:57:14.632Z,25.49
2023-08-12T09:02:22.130Z,25.45
2023-08-12T09:07:35.445Z,25.38
2023-08-12T09:12:39.722Z,25.37
2023-08-12T09:17:49.933Z,25.43
2023-08-12T09:23:14.479Z,25.52
2023-08-12T09:28:21.264Z,25.64
2023-08-12T09:33:29.550Z,25.73
2023-08-12T09:38:50.519Z,25.88
2023-08-12T09:43:58.824Z,26.05
2023-08-12T09:49:11.155Z,26.28
2023-08-12T09:54:21.971Z,26.52
2023-08-12T09:59:35.448Z,26.74
2023-08-12T10:04:44.915Z,26.93
2023-08-12T10:10:08.452Z,27.01
2023-08-12T10:15:42.125Z,27.15
2023-08-12T10:20:50.454Z,27.21
2023-08-12T10:26:16.102Z,27.20
2023-08-12T10:31:24.200Z,27.10
2023-08-12T10:36:52.362Z,27.00
2023-08-12T10:42:14.934Z,26.89
2023-08-12T10:47:26.926Z,26.83
2023-08-12T10:52:34.428Z,26.79
2023-08-12T11:03:23.209Z,26.49
2023-08-12T11:08:33.615Z,26.29
2023-08-12T11:13:52.193Z,26.20
2023-08-12T11:19:02.555Z,26.23
2023-08-12T11:24:14.624Z,26.22
2023-08-12T11:29:26.177Z,26.32
2023-08-12T11:34:35.548Z,26.47
2023-08-12T11:40:22.249Z,26.64
2023-08-12T11:45:31.425Z,26.89
2023-08-12T11:50:41.403Z,27.28
2023-08-12T11:55:59.048Z,27.50
2023-08-12T12:01:07.234Z,27.65
2023-08-12T12:06:16.930Z,27.88
2023-08-12T12:11:23.131Z,28.05
2023-08-12T12:16:41.998Z,28.21
2023-08-12T12:21:53.092Z,28.33
2023-08-12T12:26:59.936Z,28.34
2023-08-12T12:32:17.011Z,28.49
2023-08-12T12:37:23.798Z,28.61
2023-08-12T12:42:40.178Z,28.66
2023-08-12T12:47:48.568Z,28.67
2023-08-12T12:53:18.202Z,28.82
2023-08-12T12:58:25.583Z,29.00
2023-08-12T13:03:38.796Z,29.24
2023-08-12T13:08:44.467Z,29.54
2023-08-12T13:13:54.464Z,29.78
2023-08-12T13:19:01.381Z,29.91
2023-08-12T13:24:06.872Z,29.93
2023-08-12T13:29:11.461Z,29.89
2023-08-12T13:34:19.440Z,29.93
2023-08-12T13:39:32.657Z,30.13
2023-08-12T13:44:41.756Z,30.18
2023-08-12T13:49:53.914Z,30.24
2023-08-12T13:54:57.998Z,30.33
2023-08-12T14:00:01.440Z,30.42
2023-08-12T14:05:07.181Z,30.50
2023-08-12T14:10:11.012Z,30.62
2023-08-12T14:15:14.316Z,30.77
2023-08-12T14:20:20.163Z,30.85
2023-08-12T14:25:23.703Z,30.82
2023-08-12T14:30:28.546Z,30.71
2023-08-12T14:35:33.622Z,30.69
2023-08-12T14:40:37.035Z,30.67
2023-08-12T14:45:40.884Z,30.67
2023-08-12T14:50:45.827Z,30.65
2023-08-12T14:55:49.313Z,30.60
2023-08-12T15:00:52.613Z,30.54
2023-08-12T15:06:04.951Z,30.48
2023-08-12T15:11:08.702Z,30.37
2023-08-12T15:16:12.785Z,30.28
2023-08-12T15:21:20.924Z,30.16
2023-08-12T15:26:25.245Z,29.97
2023-08-12T15:31:29.172Z,29.86
2023-08-12T15:36:36.599Z,29.68
2023-08-12T15:41:46.256Z,29.50
2023-08-12T15:46:50.353Z,29.34
2023-08-12T15:51:55.149Z,29.18
2023-08-12T15:56:58.591Z,28.96
2023-08-12T16:02:02.531Z,28.64
2023-08-12T16:07:07.552Z,28.33
2023-08-12T16:12:11.819Z,28.02
2023-08-12T16:17:15.846Z,27.72
2023-08-12T16:22:20.620Z,27.41
2023-08-12T16:27:23.767Z,27.09
2023-08-12T16:32:27.066Z,26.78
2023-08-12T16:37:31.763Z,26.55
2023-08-12T16:42:35.113Z,26.42
2023-08-12T16:47:38.217Z,26.23
2023-08-12T16:52:42.849Z,26.11
2023-08-12T16:57:46.250Z,25.96
2023-08-12T17:02:49.460Z,26.00
2023-08-12T17:07:54.189Z,25.92
2023-08-12T17:12:57.503Z,25.82
2023-08-12T17:18:01.811Z,25.66
2023-08-12T17:23:07.671Z,25.55
2023-08-12T17:28:10.819Z,25.40
2023-08-12T17:33:14.308Z,25.30
2023-08-12T17:38:18.943Z,25.23
2023-08-12T17:43:31.251Z,25.14
2023-08-12T17:48:34.677Z,25.04
2023-08-12T17:53:39.579Z,25.01
2023-08-12T17:58:43.691Z,24.94
2023-08-12T18:03:46.987Z,24.84
2023-08-12T18:08:51.971Z,24.81
2023-08-12T18:13:59.350Z,24.74
2023-08-12T18:19:02.879Z,24.67
2023-08-12T18:24:08.083Z,24.57
2023-08-12T18:29:11.964Z,24.49
2023-08-12T18:34:15.584Z,24.39
2023-08-12T18:39:20.207Z,24.32
2023-08-12T18:44:23.654Z,24.24
2023-08-12T18:49:26.996Z,24.12
2023-08-12T18:54:31.748Z,23.97
2023-08-12T18:59:35.040Z,23.92
2023-08-12T19:04:38.369Z,23.83
2023-08-12T19:09:42.969Z,23.78
2023-08-12T19:14:47.919Z,23.70
2023-08-12T19:19:55.719Z,23.65
2023-08-12T19:25:00.474Z,23.66
2023-08-12T19:30:04.709Z,23.61
2023-08-12T19:35:08.533Z,23.57
2023-08-12T19:40:15.648Z,23.58
2023-08-12T19:45:20.320Z,23.60
2023-08-12T19:50:23.735Z,23.63
2023-08-12T19:55:28.277Z,23.64
2023-08-12T20:00:31.593Z,23.61
2023-08-12T20:05:34.961Z,23.58
2023-08-12T20:10:40.257Z,23.59
2023-08-12T20:15:43.784Z,23.59
2023-08-12T20:20:49.410Z,23.55
2023-08-12T20:25:59.513Z,23.56
2023-08-12T20:31:02.725Z,23.46
2023-08-12T20:36:07.848Z,23.43
2023-08-12T20:41:12.516Z,23.38
2023-08-12T20:46:15.876Z,23.34
2023-08-12T20:51:19.505Z,23.25
2023-08-12T20:56:24.229Z,23.18
2023-08-12T21:01:27.897Z,23.16
2023-08-12T21:06:31.330Z,23.16
2023-08-12T21:11:35.971Z,23.11
2023-08-12T21:16:39.409Z,23.04
2023-08-12T21:21:42.882Z,23.02
2023-08-12T21:26:47.521Z,22.97
2023-08-12T21:31:51.039Z,22.90
2023-08-12T21:36:54.496Z,22.83
2023-08-12T21:41:59.173Z,22.79
2023-08-12T21:47:02.312Z,22.75
2023-08-12T21:52:05.728Z,22.69
2023-08-12T21:57:11.740Z,22.62
2023-08-12T22:02:28.348Z,22.57
2023-08-12T22:07:31.845Z,22.51
2023-08-12T22:12:36.704Z,22.46
2023-08-12T22:17:41.493Z,22.41
2023-08-12T22:22:45.337Z,22.37
2023-08-12T22:27:50.341Z,22.31
2023-08-12T22:32:53.747Z,22.25
2023-08-12T22:37:57.405Z,22.20
2023-08-12T22:43:02.364Z,22.14
2023-08-12T22:48:06.212Z,22.12
2023-08-12T22:53:09.587Z,22.13
2023-08-12T22:58:14.121Z,22.15
2023-08-12T23:03:17.550Z,22.09
2023-08-12T23:08:20.931Z,22.05
2023-08-12T23:13:25.886Z,22.06
2023-08-12T23:18:29.456Z,22.05
2023-08-12T23:23:32.909Z,22.06
2023-08-12T23:28:37.852Z,22.03
2023-08-12T23:33:41.563Z,22.01
2023-08-12T23:38:44.803Z,21.95
2023-08-12T23:43:49.421Z,21.88
2023-08-12T23:48:52.752Z,21.84
2023-08-12T23:53:55.981Z,21.84
2023-08-12T23:59:01.197Z,21.86
